sensor_id;sensor_type;location;lat;lon;timestamp;temperature;humidity
39219;DHT22;24934;52.752;6.964;2022-11-20T00:01:25;-3.70;99.90
39219;DHT22;24934;52.752;6.964;2022-11-20T00:03:52;-3.60;99.90
39219;DHT22;24934;52.752;6.964;2022-11-20T00:06:19;-3.50;99.90
39219;DHT22;24934;52.752;6.964;2022-11-20T00:08:46;-3.40;99.90
39219;DHT22;24934;52.752;6.964;2022-11-20T00:11:20;-3.30;99.90
39219;DHT22;24934;52.752;6.964;2022-11-20T00:13:49;-3.30;99.90
39219;DHT22;24934;52.752;6.964;2022-11-20T00:16:17;-3.20;99.90
39219;DHT22;24934;52.752;6.964;2022-11-20T00:18:43;-3.10;99.90
39219;DHT22;24934;52.752;6.964;2022-11-20T00:21:17;-3.00;99.90
39219;DHT22;24934;52.752;6.964;2022-11-20T00:23:44;-2.90;99.90
39219;DHT22;24934;52.752;6.964;2022-11-20T00:26:13;-2.80;99.90
39219;DHT22;24934;52.752;6.964;2022-11-20T00:28:39;-2.80;99.90
39219;DHT22;24934;52.752;6.964;2022-11-20T00:31:14;-2.70;99.90
39219;DHT22;24934;52.752;6.964;2022-11-20T00:33:40;-2.60;99.90
39219;DHT22;24934;52.752;6.964;2022-11-20T00:36:12;-2.60;99.90
39219;DHT22;24934;52.752;6.964;2022-11-20T00:38:37;-2.50;99.90
39219;DHT22;24934;52.752;6.964;2022-11-20T00:41:07;-2.50;99.90
39219;DHT22;24934;52.752;6.964;2022-11-20T00:43:33;-2.50;99.90
39219;DHT22;24934;52.752;6.964;2022-11-20T00:46:00;-2.40;99.90
39219;DHT22;24934;52.752;6.964;2022-11-20T00:48:26;-2.40;99.90
39219;DHT22;24934;52.752;6.964;2022-11-20T00:50:53;-2.40;99.90
39219;DHT22;24934;52.752;6.964;2022-11-20T00:53:18;-2.30;99.90
39219;DHT22;24934;52.752;6.964;2022-11-20T00:56:05;-2.30;99.90
39219;DHT22;24934;52.752;6.964;2022-11-20T00:58:36;-2.30;99.90
39219;DHT22;24934;52.752;6.964;2022-11-20T01:01:05;-2.30;99.90
39219;DHT22;24934;52.752;6.964;2022-11-20T01:03:34;-2.30;99.90
39219;DHT22;24934;52.752;6.964;2022-11-20T01:06:06;-2.20;99.90
39219;DHT22;24934;52.752;6.964;2022-11-20T01:08:34;-2.20;99.90
39219;DHT22;24934;52.752;6.964;2022-11-20T01:11:01;-2.20;99.90
39219;DHT22;24934;52.752;6.964;2022-11-20T01:13:29;-2.20;99.90
39219;DHT22;24934;52.752;6.964;2022-11-20T01:16:11;-2.20;99.90
39219;DHT22;24934;52.752;6.964;2022-11-20T01:18:40;-2.10;99.90
39219;DHT22;24934;52.752;6.964;2022-11-20T01:21:12;-2.20;99.90
39219;DHT22;24934;52.752;6.964;2022-11-20T01:23:40;-2.10;99.90
39219;DHT22;24934;52.752;6.964;2022-11-20T01:26:15;-2.20;99.90
39219;DHT22;24934;52.752;6.964;2022-11-20T01:28:42;-2.20;99.90
39219;DHT22;24934;52.752;6.964;2022-11-20T01:31:34;-2.20;99.90
39219;DHT22;24934;52.752;6.964;2022-11-20T01:34:12;-2.20;99.90
39219;DHT22;24934;52.752;6.964;2022-11-20T01:36:39;-2.20;99.90
39219;DHT22;24934;52.752;6.964;2022-11-20T01:39:07;-2.10;99.90
39219;DHT22;24934;52.752;6.964;2022-11-20T01:41:34;-2.10;99.90
39219;DHT22;24934;52.752;6.964;2022-11-20T01:44:21;-2.10;99.90
39219;DHT22;24934;52.752;6.964;2022-11-20T01:47:00;-2.10;99.90
39219;DHT22;24934;52.752;6.964;2022-11-20T01:52:03;-2.00;99.90
39219;DHT22;24934;52.752;6.964;2022-11-20T01:54:43;-2.00;99.90
39219;DHT22;24934;52.752;6.964;2022-11-20T01:57:11;-2.00;99.90
39219;DHT22;24934;52.752;6.964;2022-11-20T01:59:45;-2.00;99.90
39219;DHT22;24934;52.752;6.964;2022-11-20T02:02:13;-1.90;99.90
39219;DHT22;24934;52.752;6.964;2022-11-20T02:04:39;-2.00;99.90
39219;DHT22;24934;52.752;6.964;2022-11-20T02:07:05;-2.00;99.90
39219;DHT22;24934;52.752;6.964;2022-11-20T02:09:31;-1.90;99.90
39219;DHT22;24934;52.752;6.964;2022-11-20T02:12:08;-1.90;99.90
39219;DHT22;24934;52.752;6.964;2022-11-20T02:14:54;-1.80;99.90
39219;DHT22;24934;52.752;6.964;2022-11-20T02:17:19;-1.80;99.90
39219;DHT22;24934;52.752;6.964;2022-11-20T02:19:46;-1.80;99.90
39219;DHT22;24934;52.752;6.964;2022-11-20T02:22:16;-1.70;99.90
39219;DHT22;24934;52.752;6.964;2022-11-20T02:24:44;-1.70;99.90
39219;DHT22;24934;52.752;6.964;2022-11-20T02:27:14;-1.70;99.90
39219;DHT22;24934;52.752;6.964;2022-11-20T02:29:57;-1.70;99.90
39219;DHT22;24934;52.752;6.964;2022-11-20T02:32:28;-1.60;99.90
39219;DHT22;24934;52.752;6.964;2022-11-20T02:34:54;-1.60;99.90
39219;DHT22;24934;52.752;6.964;2022-11-20T02:37:21;-1.60;99.90
39219;DHT22;24934;52.752;6.964;2022-11-20T02:39:49;-1.60;99.90
39219;DHT22;24934;52.752;6.964;2022-11-20T02:42:15;-1.50;99.90
39219;DHT22;24934;52.752;6.964;2022-11-20T02:44:41;-1.60;99.90
39219;DHT22;24934;52.752;6.964;2022-11-20T02:47:08;-1.50;99.90
39219;DHT22;24934;52.752;6.964;2022-11-20T02:49:37;-1.50;99.90
39219;DHT22;24934;52.752;6.964;2022-11-20T02:52:02;-1.50;99.90
39219;DHT22;24934;52.752;6.964;2022-11-20T02:54:28;-1.50;99.90
39219;DHT22;24934;52.752;6.964;2022-11-20T02:56:54;-1.40;99.90
39219;DHT22;24934;52.752;6.964;2022-11-20T02:59:19;-1.40;99.90
39219;DHT22;24934;52.752;6.964;2022-11-20T03:01:45;-1.40;99.90
39219;DHT22;24934;52.752;6.964;2022-11-20T03:04:12;-1.40;99.90
39219;DHT22;24934;52.752;6.964;2022-11-20T03:06:38;-1.40;99.90
39219;DHT22;24934;52.752;6.964;2022-11-20T03:09:03;-1.40;99.90
39219;DHT22;24934;52.752;6.964;2022-11-20T03:11:29;-1.40;99.90
39219;DHT22;24934;52.752;6.964;2022-11-20T03:13:55;-1.40;99.90
39219;DHT22;24934;52.752;6.964;2022-11-20T03:16:22;-1.40;99.90
39219;DHT22;24934;52.752;6.964;2022-11-20T03:18:48;-1.40;99.90
39219;DHT22;24934;52.752;6.964;2022-11-20T03:21:15;-1.40;99.90
39219;DHT22;24934;52.752;6.964;2022-11-20T03:23:41;-1.40;99.90
39219;DHT22;24934;52.752;6.964;2022-11-20T03:26:11;-1.40;99.90
39219;DHT22;24934;52.752;6.964;2022-11-20T03:28:42;-1.40;99.90
39219;DHT22;24934;52.752;6.964;2022-11-20T03:31:13;-1.40;99.90
39219;DHT22;24934;52.752;6.964;2022-11-20T03:33:40;-1.40;99.90
39219;DHT22;24934;52.752;6.964;2022-11-20T03:36:09;-1.40;99.90
39219;DHT22;24934;52.752;6.964;2022-11-20T03:38:35;-1.30;99.90
39219;DHT22;24934;52.752;6.964;2022-11-20T03:41:03;-1.30;99.90
39219;DHT22;24934;52.752;6.964;2022-11-20T03:43:29;-1.30;99.90
39219;DHT22;24934;52.752;6.964;2022-11-20T03:45:56;-1.30;99.90
39219;DHT22;24934;52.752;6.964;2022-11-20T03:48:22;-1.30;99.90
39219;DHT22;24934;52.752;6.964;2022-11-20T03:50:48;-1.30;99.90
39219;DHT22;24934;52.752;6.964;2022-11-20T03:53:14;-1.20;99.90
39219;DHT22;24934;52.752;6.964;2022-11-20T03:55:40;-1.20;99.90
39219;DHT22;24934;52.752;6.964;2022-11-20T03:58:05;-1.20;99.90
39219;DHT22;24934;52.752;6.964;2022-11-20T04:00:31;-1.20;99.90
39219;DHT22;24934;52.752;6.964;2022-11-20T04:03:01;-1.20;99.90
39219;DHT22;24934;52.752;6.964;2022-11-20T04:05:27;-1.20;99.90
39219;DHT22;24934;52.752;6.964;2022-11-20T04:07:52;-1.20;99.90
39219;DHT22;24934;52.752;6.964;2022-11-20T04:10:18;-1.20;99.90
39219;DHT22;24934;52.752;6.964;2022-11-20T04:12:47;-1.20;99.90
39219;DHT22;24934;52.752;6.964;2022-11-20T04:15:13;-1.10;99.90
39219;DHT22;24934;52.752;6.964;2022-11-20T04:17:39;-1.10;99.90
39219;DHT22;24934;52.752;6.964;2022-11-20T04:20:05;-1.10;99.90
39219;DHT22;24934;52.752;6.964;2022-11-20T04:22:31;-1.10;99.90
39219;DHT22;24934;52.752;6.964;2022-11-20T04:24:56;-1.10;99.90
39219;DHT22;24934;52.752;6.964;2022-11-20T04:27:22;-1.10;99.90
39219;DHT22;24934;52.752;6.964;2022-11-20T04:29:47;-1.10;99.90
39219;DHT22;24934;52.752;6.964;2022-11-20T04:32:13;-1.10;99.90
39219;DHT22;24934;52.752;6.964;2022-11-20T04:34:38;-1.10;99.90
39219;DHT22;24934;52.752;6.964;2022-11-20T04:37:04;-1.10;99.90
39219;DHT22;24934;52.752;6.964;2022-11-20T04:39:30;-1.00;99.90
39219;DHT22;24934;52.752;6.964;2022-11-20T04:41:56;-1.00;99.90
39219;DHT22;24934;52.752;6.964;2022-11-20T04:44:46;-1.00;99.90
39219;DHT22;24934;52.752;6.964;2022-11-20T04:47:11;-1.00;99.90
39219;DHT22;24934;52.752;6.964;2022-11-20T04:49:37;-1.00;99.90
39219;DHT22;24934;52.752;6.964;2022-11-20T04:52:13;-1.00;99.90
39219;DHT22;24934;52.752;6.964;2022-11-20T04:54:42;-1.00;99.90
39219;DHT22;24934;52.752;6.964;2022-11-20T04:57:07;-1.00;99.90
39219;DHT22;24934;52.752;6.964;2022-11-20T04:59:33;-1.10;99.90
39219;DHT22;24934;52.752;6.964;2022-11-20T05:01:58;-1.00;99.90
39219;DHT22;24934;52.752;6.964;2022-11-20T05:04:24;-1.00;99.90
39219;DHT22;24934;52.752;6.964;2022-11-20T05:06:50;-1.00;99.90
39219;DHT22;24934;52.752;6.964;2022-11-20T05:09:15;-1.00;99.90
39219;DHT22;24934;52.752;6.964;2022-11-20T05:11:42;-1.00;99.90
39219;DHT22;24934;52.752;6.964;2022-11-20T05:14:09;-1.00;99.90
39219;DHT22;24934;52.752;6.964;2022-11-20T05:16:34;-1.00;99.90
39219;DHT22;24934;52.752;6.964;2022-11-20T05:19:01;-1.00;99.90
39219;DHT22;24934;52.752;6.964;2022-11-20T05:21:27;-1.00;99.90
39219;DHT22;24934;52.752;6.964;2022-11-20T05:23:56;-1.00;99.90
39219;DHT22;24934;52.752;6.964;2022-11-20T05:26:22;-1.00;99.90
39219;DHT22;24934;52.752;6.964;2022-11-20T05:28:48;-1.00;99.90
39219;DHT22;24934;52.752;6.964;2022-11-20T05:31:18;-1.00;99.90
39219;DHT22;24934;52.752;6.964;2022-11-20T05:33:44;-1.00;99.90
39219;DHT22;24934;52.752;6.964;2022-11-20T05:36:14;-1.00;99.90
39219;DHT22;24934;52.752;6.964;2022-11-20T05:38:40;-1.00;99.90
39219;DHT22;24934;52.752;6.964;2022-11-20T05:41:15;-1.00;99.90
39219;DHT22;24934;52.752;6.964;2022-11-20T05:43:42;-1.00;99.90
39219;DHT22;24934;52.752;6.964;2022-11-20T05:46:11;-1.00;99.90
39219;DHT22;24934;52.752;6.964;2022-11-20T05:48:38;-1.00;99.90
39219;DHT22;24934;52.752;6.964;2022-11-20T05:51:09;-1.00;99.90
39219;DHT22;24934;52.752;6.964;2022-11-20T05:53:36;-1.00;99.90
39219;DHT22;24934;52.752;6.964;2022-11-20T05:56:10;-1.00;99.90
39219;DHT22;24934;52.752;6.964;2022-11-20T05:58:37;-1.00;99.90
39219;DHT22;24934;52.752;6.964;2022-11-20T06:01:06;-1.00;99.90
39219;DHT22;24934;52.752;6.964;2022-11-20T06:03:32;-1.00;99.90
39219;DHT22;24934;52.752;6.964;2022-11-20T06:06:02;-1.00;99.90
39219;DHT22;24934;52.752;6.964;2022-11-20T06:08:32;-0.90;99.90
39219;DHT22;24934;52.752;6.964;2022-11-20T06:10:57;-0.90;99.90
39219;DHT22;24934;52.752;6.964;2022-11-20T06:13:23;-1.00;99.90
39219;DHT22;24934;52.752;6.964;2022-11-20T06:15:50;-0.90;99.90
39219;DHT22;24934;52.752;6.964;2022-11-20T06:18:19;-0.90;99.90
39219;DHT22;24934;52.752;6.964;2022-11-20T06:20:46;-0.90;99.90
39219;DHT22;24934;52.752;6.964;2022-11-20T06:23:14;-1.00;99.90
39219;DHT22;24934;52.752;6.964;2022-11-20T06:25:41;-1.00;99.90
39219;DHT22;24934;52.752;6.964;2022-11-20T06:28:07;-1.00;99.90
39219;DHT22;24934;52.752;6.964;2022-11-20T06:30:33;-1.00;99.90
39219;DHT22;24934;52.752;6.964;2022-11-20T06:32:58;-1.00;99.90
39219;DHT22;24934;52.752;6.964;2022-11-20T06:35:24;-1.00;99.90
39219;DHT22;24934;52.752;6.964;2022-11-20T06:37:52;-1.00;99.90
39219;DHT22;24934;52.752;6.964;2022-11-20T06:40:18;-1.00;99.90
39219;DHT22;24934;52.752;6.964;2022-11-20T06:42:44;-0.90;99.90
39219;DHT22;24934;52.752;6.964;2022-11-20T06:45:10;-1.00;99.90
39219;DHT22;24934;52.752;6.964;2022-11-20T06:47:35;-1.00;99.90
39219;DHT22;24934;52.752;6.964;2022-11-20T06:50:01;-1.00;99.90
39219;DHT22;24934;52.752;6.964;2022-11-20T06:52:27;-1.00;99.90
39219;DHT22;24934;52.752;6.964;2022-11-20T06:54:55;-0.90;99.90
39219;DHT22;24934;52.752;6.964;2022-11-20T06:57:27;-1.00;99.90
39219;DHT22;24934;52.752;6.964;2022-11-20T06:59:54;-1.00;99.90
39219;DHT22;24934;52.752;6.964;2022-11-20T07:02:23;-0.90;99.90
39219;DHT22;24934;52.752;6.964;2022-11-20T07:04:48;-1.00;99.90
39219;DHT22;24934;52.752;6.964;2022-11-20T07:07:17;-0.90;99.90
39219;DHT22;24934;52.752;6.964;2022-11-20T07:09:42;-0.90;99.90
39219;DHT22;24934;52.752;6.964;2022-11-20T07:12:08;-0.90;99.90
39219;DHT22;24934;52.752;6.964;2022-11-20T07:14:35;-0.90;99.90
39219;DHT22;24934;52.752;6.964;2022-11-20T07:17:03;-1.00;99.90
39219;DHT22;24934;52.752;6.964;2022-11-20T07:19:29;-0.90;99.90
39219;DHT22;24934;52.752;6.964;2022-11-20T07:21:55;-0.90;99.90
39219;DHT22;24934;52.752;6.964;2022-11-20T07:24:20;-1.00;99.90
39219;DHT22;24934;52.752;6.964;2022-11-20T07:26:46;-0.90;99.90
39219;DHT22;24934;52.752;6.964;2022-11-20T07:29:15;-0.90;99.90
39219;DHT22;24934;52.752;6.964;2022-11-20T07:31:42;-0.90;99.90
39219;DHT22;24934;52.752;6.964;2022-11-20T07:34:08;-0.90;99.90
39219;DHT22;24934;52.752;6.964;2022-11-20T07:36:34;-0.90;99.90
39219;DHT22;24934;52.752;6.964;2022-11-20T07:39:00;-0.90;99.90
39219;DHT22;24934;52.752;6.964;2022-11-20T07:41:26;-0.90;99.90
39219;DHT22;24934;52.752;6.964;2022-11-20T07:43:53;-0.90;99.90
39219;DHT22;24934;52.752;6.964;2022-11-20T07:46:21;-0.90;99.90
39219;DHT22;24934;52.752;6.964;2022-11-20T07:48:47;-0.90;99.90
39219;DHT22;24934;52.752;6.964;2022-11-20T07:51:12;-0.80;99.90
39219;DHT22;24934;52.752;6.964;2022-11-20T07:53:39;-0.80;99.90
39219;DHT22;24934;52.752;6.964;2022-11-20T07:56:04;-0.80;99.90
39219;DHT22;24934;52.752;6.964;2022-11-20T07:58:30;-0.80;99.90
39219;DHT22;24934;52.752;6.964;2022-11-20T08:01:05;-0.70;99.90
39219;DHT22;24934;52.752;6.964;2022-11-20T08:03:31;-0.70;99.90
39219;DHT22;24934;52.752;6.964;2022-11-20T08:06:03;-0.70;99.90
39219;DHT22;24934;52.752;6.964;2022-11-20T08:08:29;-0.70;99.90
39219;DHT22;24934;52.752;6.964;2022-11-20T08:10:57;-0.60;99.90
39219;DHT22;24934;52.752;6.964;2022-11-20T08:13:43;-0.60;99.90
39219;DHT22;24934;52.752;6.964;2022-11-20T08:16:30;-0.60;99.90
39219;DHT22;24934;52.752;6.964;2022-11-20T08:18:56;-0.60;99.90
39219;DHT22;24934;52.752;6.964;2022-11-20T08:21:21;-0.60;99.90
39219;DHT22;24934;52.752;6.964;2022-11-20T08:23:47;-0.50;99.90
39219;DHT22;24934;52.752;6.964;2022-11-20T08:26:13;-0.50;99.90
39219;DHT22;24934;52.752;6.964;2022-11-20T08:28:38;-0.50;99.90
39219;DHT22;24934;52.752;6.964;2022-11-20T08:31:04;-0.60;99.90
39219;DHT22;24934;52.752;6.964;2022-11-20T08:33:30;-0.50;99.90
39219;DHT22;24934;52.752;6.964;2022-11-20T08:36:02;-0.50;99.90
39219;DHT22;24934;52.752;6.964;2022-11-20T08:38:29;-0.40;99.90
39219;DHT22;24934;52.752;6.964;2022-11-20T08:41:01;-0.40;99.90
39219;DHT22;24934;52.752;6.964;2022-11-20T08:43:45;-0.30;99.90
39219;DHT22;24934;52.752;6.964;2022-11-20T08:46:11;-0.30;99.90
39219;DHT22;24934;52.752;6.964;2022-11-20T08:48:37;-0.20;99.90
39219;DHT22;24934;52.752;6.964;2022-11-20T08:51:03;-0.10;99.90
39219;DHT22;24934;52.752;6.964;2022-11-20T08:53:28;-0.10;99.90
39219;DHT22;24934;52.752;6.964;2022-11-20T08:55:54;0.00;99.90
39219;DHT22;24934;52.752;6.964;2022-11-20T08:58:21;0.10;99.90
39219;DHT22;24934;52.752;6.964;2022-11-20T09:00:47;0.10;99.90
39219;DHT22;24934;52.752;6.964;2022-11-20T09:03:13;0.20;99.90
39219;DHT22;24934;52.752;6.964;2022-11-20T09:05:39;0.20;99.90
39219;DHT22;24934;52.752;6.964;2022-11-20T09:08:04;0.10;99.90
39219;DHT22;24934;52.752;6.964;2022-11-20T09:10:30;0.20;99.90
39219;DHT22;24934;52.752;6.964;2022-11-20T09:12:56;0.30;99.90
39219;DHT22;24934;52.752;6.964;2022-11-20T09:15:22;0.30;99.90
39219;DHT22;24934;52.752;6.964;2022-11-20T09:17:54;0.50;99.90
39219;DHT22;24934;52.752;6.964;2022-11-20T09:20:20;0.50;99.90
39219;DHT22;24934;52.752;6.964;2022-11-20T09:22:50;0.60;99.90
39219;DHT22;24934;52.752;6.964;2022-11-20T09:25:15;0.60;99.90
39219;DHT22;24934;52.752;6.964;2022-11-20T09:27:41;0.60;99.90
39219;DHT22;24934;52.752;6.964;2022-11-20T09:30:09;0.60;99.90
39219;DHT22;24934;52.752;6.964;2022-11-20T09:32:44;0.60;99.90
39219;DHT22;24934;52.752;6.964;2022-11-20T09:35:10;0.60;99.90
39219;DHT22;24934;52.752;6.964;2022-11-20T09:37:36;0.70;99.90
39219;DHT22;24934;52.752;6.964;2022-11-20T09:40:03;0.70;99.90
39219;DHT22;24934;52.752;6.964;2022-11-20T09:45:36;1.00;99.90
39219;DHT22;24934;52.752;6.964;2022-11-20T09:50:46;1.10;99.90
39219;DHT22;24934;52.752;6.964;2022-11-20T09:56:03;1.20;99.90
39219;DHT22;24934;52.752;6.964;2022-11-20T10:01:22;1.30;99.90
39219;DHT22;24934;52.752;6.964;2022-11-20T10:06:34;1.50;99.90
39219;DHT22;24934;52.752;6.964;2022-11-20T10:14:37;1.90;99.90
39219;DHT22;24934;52.752;6.964;2022-11-20T10:20:36;2.10;99.90
39219;DHT22;24934;52.752;6.964;2022-11-20T10:23:43;2.40;99.90
39219;DHT22;24934;52.752;6.964;2022-11-20T10:31:34;2.80;99.90
39219;DHT22;24934;52.752;6.964;2022-11-20T10:34:06;3.00;99.90
39219;DHT22;24934;52.752;6.964;2022-11-20T10:36:46;3.20;99.90
39219;DHT22;24934;52.752;6.964;2022-11-20T10:39:24;3.20;99.90
39219;DHT22;24934;52.752;6.964;2022-11-20T10:41:55;3.40;99.90
39219;DHT22;24934;52.752;6.964;2022-11-20T10:44:31;3.60;99.90
39219;DHT22;24934;52.752;6.964;2022-11-20T10:47:19;3.70;99.90
39219;DHT22;24934;52.752;6.964;2022-11-20T10:49:50;3.70;99.90
39219;DHT22;24934;52.752;6.964;2022-11-20T10:52:28;3.80;99.90
39219;DHT22;24934;52.752;6.964;2022-11-20T10:55:17;3.80;99.90
39219;DHT22;24934;52.752;6.964;2022-11-20T10:58:13;3.80;99.90
39219;DHT22;24934;52.752;6.964;2022-11-20T11:00:39;3.90;99.90
39219;DHT22;24934;52.752;6.964;2022-11-20T11:03:25;3.90;99.90
39219;DHT22;24934;52.752;6.964;2022-11-20T11:08:47;3.40;99.90
39219;DHT22;24934;52.752;6.964;2022-11-20T11:11:32;3.30;99.90
39219;DHT22;24934;52.752;6.964;2022-11-20T11:14:09;3.20;99.90
39219;DHT22;24934;52.752;6.964;2022-11-20T11:16:35;3.10;99.90
39219;DHT22;24934;52.752;6.964;2022-11-20T11:19:05;3.00;99.90
39219;DHT22;24934;52.752;6.964;2022-11-20T11:21:30;2.90;99.90
39219;DHT22;24934;52.752;6.964;2022-11-20T11:24:02;2.80;99.90
39219;DHT22;24934;52.752;6.964;2022-11-20T11:26:31;2.70;99.90
39219;DHT22;24934;52.752;6.964;2022-11-20T11:29:04;2.70;99.90
39219;DHT22;24934;52.752;6.964;2022-11-20T11:31:34;2.60;99.90
39219;DHT22;24934;52.752;6.964;2022-11-20T11:34:14;2.60;99.90
39219;DHT22;24934;52.752;6.964;2022-11-20T11:36:41;2.50;99.90
39219;DHT22;24934;52.752;6.964;2022-11-20T11:39:19;2.50;99.90
39219;DHT22;24934;52.752;6.964;2022-11-20T11:41:46;2.50;99.90
39219;DHT22;24934;52.752;6.964;2022-11-20T11:44:19;2.50;99.90
39219;DHT22;24934;52.752;6.964;2022-11-20T11:47:05;2.50;99.90
39219;DHT22;24934;52.752;6.964;2022-11-20T11:49:33;2.50;99.90
39219;DHT22;24934;52.752;6.964;2022-11-20T11:54:45;2.70;99.90
39219;DHT22;24934;52.752;6.964;2022-11-20T12:00:13;2.60;99.90
39219;DHT22;24934;52.752;6.964;2022-11-20T12:05:42;2.70;99.90
39219;DHT22;24934;52.752;6.964;2022-11-20T12:10:49;3.00;99.90
39219;DHT22;24934;52.752;6.964;2022-11-20T12:15:50;3.00;99.90
39219;DHT22;24934;52.752;6.964;2022-11-20T12:18:21;3.10;99.90
39219;DHT22;24934;52.752;6.964;2022-11-20T12:21:18;3.20;99.90
39219;DHT22;24934;52.752;6.964;2022-11-20T12:40:44;5.20;99.90
39219;DHT22;24934;52.752;6.964;2022-11-20T12:43:23;5.10;99.90
39219;DHT22;24934;52.752;6.964;2022-11-20T12:49:19;4.20;99.90
39219;DHT22;24934;52.752;6.964;2022-11-20T12:57:55;3.70;99.90
39219;DHT22;24934;52.752;6.964;2022-11-20T13:00:24;3.50;99.90
39219;DHT22;24934;52.752;6.964;2022-11-20T13:08:40;3.40;99.90
39219;DHT22;24934;52.752;6.964;2022-11-20T13:19:03;2.90;99.90
39219;DHT22;24934;52.752;6.964;2022-11-20T13:21:41;2.80;99.90
39219;DHT22;24934;52.752;6.964;2022-11-20T13:29:26;2.30;99.90
39219;DHT22;24934;52.752;6.964;2022-11-20T13:32:05;2.30;99.90
39219;DHT22;24934;52.752;6.964;2022-11-20T13:34:32;2.30;99.90
39219;DHT22;24934;52.752;6.964;2022-11-20T13:36:59;2.20;99.90
39219;DHT22;24934;52.752;6.964;2022-11-20T13:39:36;2.20;99.90
39219;DHT22;24934;52.752;6.964;2022-11-20T13:44:42;2.20;99.90
39219;DHT22;24934;52.752;6.964;2022-11-20T13:47:25;2.20;99.90
39219;DHT22;24934;52.752;6.964;2022-11-20T13:49:51;2.20;99.90
39219;DHT22;24934;52.752;6.964;2022-11-20T13:55:16;2.10;99.90
39219;DHT22;24934;52.752;6.964;2022-11-20T14:00:23;2.10;99.90
39219;DHT22;24934;52.752;6.964;2022-11-20T14:05:34;1.90;99.90
39219;DHT22;24934;52.752;6.964;2022-11-20T14:08:03;1.80;99.90
39219;DHT22;24934;52.752;6.964;2022-11-20T14:10:31;1.70;99.90
39219;DHT22;24934;52.752;6.964;2022-11-20T14:12:56;1.70;99.90
39219;DHT22;24934;52.752;6.964;2022-11-20T14:15:28;1.70;99.90
39219;DHT22;24934;52.752;6.964;2022-11-20T14:17:54;1.60;99.90
39219;DHT22;24934;52.752;6.964;2022-11-20T14:20:23;1.60;99.90
39219;DHT22;24934;52.752;6.964;2022-11-20T14:22:51;1.50;99.90
39219;DHT22;24934;52.752;6.964;2022-11-20T14:27:53;1.60;99.90
39219;DHT22;24934;52.752;6.964;2022-11-20T14:30:38;1.50;99.90
39219;DHT22;24934;52.752;6.964;2022-11-20T14:33:04;1.50;99.90
39219;DHT22;24934;52.752;6.964;2022-11-20T14:35:34;1.50;99.90
39219;DHT22;24934;52.752;6.964;2022-11-20T14:38:01;1.50;99.90
39219;DHT22;24934;52.752;6.964;2022-11-20T14:42:55;1.40;99.90
39219;DHT22;24934;52.752;6.964;2022-11-20T14:45:22;1.30;99.90
39219;DHT22;24934;52.752;6.964;2022-11-20T14:47:48;1.30;99.90
39219;DHT22;24934;52.752;6.964;2022-11-20T14:50:19;1.30;99.90
39219;DHT22;24934;52.752;6.964;2022-11-20T14:52:54;1.30;99.90
39219;DHT22;24934;52.752;6.964;2022-11-20T14:55:30;1.20;99.90
39219;DHT22;24934;52.752;6.964;2022-11-20T14:58:18;1.20;99.90
39219;DHT22;24934;52.752;6.964;2022-11-20T15:01:03;1.20;99.90
39219;DHT22;24934;52.752;6.964;2022-11-20T15:03:33;1.20;99.90
39219;DHT22;24934;52.752;6.964;2022-11-20T15:05:59;1.20;99.90
39219;DHT22;24934;52.752;6.964;2022-11-20T15:08:25;1.20;99.90
39219;DHT22;24934;52.752;6.964;2022-11-20T15:10:51;1.20;99.90
39219;DHT22;24934;52.752;6.964;2022-11-20T15:13:34;1.20;99.90
39219;DHT22;24934;52.752;6.964;2022-11-20T15:16:02;1.20;99.90
39219;DHT22;24934;52.752;6.964;2022-11-20T15:18:46;1.20;99.90
39219;DHT22;24934;52.752;6.964;2022-11-20T15:21:14;1.10;99.90
39219;DHT22;24934;52.752;6.964;2022-11-20T15:23:40;1.10;99.90
39219;DHT22;24934;52.752;6.964;2022-11-20T15:26:11;1.10;99.90
39219;DHT22;24934;52.752;6.964;2022-11-20T15:28:41;1.10;99.90
39219;DHT22;24934;52.752;6.964;2022-11-20T15:31:12;1.10;99.90
39219;DHT22;24934;52.752;6.964;2022-11-20T15:33:38;1.00;99.90
39219;DHT22;24934;52.752;6.964;2022-11-20T15:36:04;1.00;99.90
39219;DHT22;24934;52.752;6.964;2022-11-20T15:38:29;1.00;99.90
39219;DHT22;24934;52.752;6.964;2022-11-20T15:40:55;0.90;99.90
39219;DHT22;24934;52.752;6.964;2022-11-20T15:43:21;0.90;99.90
39219;DHT22;24934;52.752;6.964;2022-11-20T15:45:49;0.90;99.90
39219;DHT22;24934;52.752;6.964;2022-11-20T15:48:24;0.90;99.90
39219;DHT22;24934;52.752;6.964;2022-11-20T15:53:39;0.90;99.90
39219;DHT22;24934;52.752;6.964;2022-11-20T15:56:05;0.80;99.90
39219;DHT22;24934;52.752;6.964;2022-11-20T15:58:31;0.80;99.90
39219;DHT22;24934;52.752;6.964;2022-11-20T16:00:57;0.80;99.90
39219;DHT22;24934;52.752;6.964;2022-11-20T16:03:23;0.80;99.90
39219;DHT22;24934;52.752;6.964;2022-11-20T16:05:49;0.80;99.90
39219;DHT22;24934;52.752;6.964;2022-11-20T16:08:14;0.80;99.90
39219;DHT22;24934;52.752;6.964;2022-11-20T16:10:40;0.70;99.90
39219;DHT22;24934;52.752;6.964;2022-11-20T16:13:15;0.70;99.90
39219;DHT22;24934;52.752;6.964;2022-11-20T16:16:02;0.70;99.90
39219;DHT22;24934;52.752;6.964;2022-11-20T16:18:30;0.70;99.90
39219;DHT22;24934;52.752;6.964;2022-11-20T16:20:56;0.70;99.90
39219;DHT22;24934;52.752;6.964;2022-11-20T16:23:22;0.70;99.90
39219;DHT22;24934;52.752;6.964;2022-11-20T16:25:49;0.70;99.90
39219;DHT22;24934;52.752;6.964;2022-11-20T16:28:15;0.70;99.90
39219;DHT22;24934;52.752;6.964;2022-11-20T16:30:41;0.60;99.90
39219;DHT22;24934;52.752;6.964;2022-11-20T16:33:12;0.60;99.90
39219;DHT22;24934;52.752;6.964;2022-11-20T16:35:38;0.60;99.90
39219;DHT22;24934;52.752;6.964;2022-11-20T16:38:04;0.70;99.90
39219;DHT22;24934;52.752;6.964;2022-11-20T16:40:29;0.70;99.90
39219;DHT22;24934;52.752;6.964;2022-11-20T16:42:55;0.70;99.90
39219;DHT22;24934;52.752;6.964;2022-11-20T16:45:22;0.70;99.90
39219;DHT22;24934;52.752;6.964;2022-11-20T16:47:48;0.60;99.90
39219;DHT22;24934;52.752;6.964;2022-11-20T16:50:13;0.70;99.90
39219;DHT22;24934;52.752;6.964;2022-11-20T16:52:39;0.60;99.90
39219;DHT22;24934;52.752;6.964;2022-11-20T16:55:05;0.60;99.90
39219;DHT22;24934;52.752;6.964;2022-11-20T16:57:31;0.60;99.90
39219;DHT22;24934;52.752;6.964;2022-11-20T17:00:00;0.60;99.90
39219;DHT22;24934;52.752;6.964;2022-11-20T17:02:26;0.70;99.90
39219;DHT22;24934;52.752;6.964;2022-11-20T17:04:52;0.70;99.90
39219;DHT22;24934;52.752;6.964;2022-11-20T17:07:18;0.70;99.90
39219;DHT22;24934;52.752;6.964;2022-11-20T17:09:43;0.70;99.90
39219;DHT22;24934;52.752;6.964;2022-11-20T17:12:09;0.70;99.90
39219;DHT22;24934;52.752;6.964;2022-11-20T17:14:34;0.70;99.90
39219;DHT22;24934;52.752;6.964;2022-11-20T17:17:00;0.60;99.90
39219;DHT22;24934;52.752;6.964;2022-11-20T17:19:26;0.60;99.90
39219;DHT22;24934;52.752;6.964;2022-11-20T17:21:51;0.60;99.90
39219;DHT22;24934;52.752;6.964;2022-11-20T17:24:17;0.60;99.90
39219;DHT22;24934;52.752;6.964;2022-11-20T17:26:43;0.60;99.90
39219;DHT22;24934;52.752;6.964;2022-11-20T17:29:12;0.70;99.90
39219;DHT22;24934;52.752;6.964;2022-11-20T17:31:38;0.70;99.90
39219;DHT22;24934;52.752;6.964;2022-11-20T17:34:07;0.70;99.90
39219;DHT22;24934;52.752;6.964;2022-11-20T17:36:33;0.70;99.90
39219;DHT22;24934;52.752;6.964;2022-11-20T17:38:59;0.70;99.90
39219;DHT22;24934;52.752;6.964;2022-11-20T17:41:26;0.70;99.90